Time;durP1;ratioP1;P1;durP2;ratioP2;P2;SDS_P1;SDS_P2;PMS_P1;PMS_P2;Temp;Humidity;BMP_temperature;BMP_pressure;BME280_temperature;BME280_humidity;BME280_pressure;Samples;Min_cycle;Max_cycle;Signal;HPM_P1;HPM_P2
2023/01/22 00:00:05;;;;;;;11.40;3.42;;;;;;;4.91;100.00;102084.81;5109629;28;20074;-81
2023/01/22 00:02:35;;;;;;;12.13;3.45;;;;;;;4.83;100.00;102067.44;5104700;28;20055;-80
2023/01/22 00:05:03;;;;;;;14.73;3.55;;;;;;;4.79;100.00;102055.31;5100719;28;20047;-80
2023/01/22 00:07:29;;;;;;;11.63;3.92;;;;;;;4.47;100.00;102025.66;5109118;28;20367;-80
2023/01/22 00:09:56;;;;;;;10.65;3.50;;;;;;;4.68;100.00;102037.06;5103080;28;20054;-81
2023/01/22 00:12:23;;;;;;;11.52;3.95;;;;;;;4.90;100.00;102064.91;5093908;28;20491;-81
2023/01/22 00:14:50;;;;;;;13.63;4.05;;;;;;;4.80;100.00;102046.66;5100214;28;20081;-80
2023/01/22 00:17:17;;;;;;;12.90;3.70;;;;;;;5.00;100.00;102071.03;5104302;28;20040;-80
2023/01/22 00:19:44;;;;;;;10.82;4.10;;;;;;;4.33;100.00;101989.22;5095599;28;20056;-81
2023/01/22 00:22:11;;;;;;;13.02;4.13;;;;;;;4.69;100.00;102034.50;5106893;28;20492;-79
2023/01/22 00:24:40;;;;;;;13.60;3.58;;;;;;;4.76;100.00;102022.41;5103992;28;20051;-80
2023/01/22 00:27:07;;;;;;;10.70;4.07;;;;;;;4.80;100.00;102063.13;5106806;28;20047;-80
2023/01/22 00:29:34;;;;;;;11.27;4.05;;;;;;;4.53;100.00;101988.53;5101968;28;20056;-81
2023/01/22 00:32:01;;;;;;;10.35;4.15;;;;;;;4.74;100.00;102045.75;5099905;28;20044;-81
2023/01/22 00:34:28;;;;;;;10.82;3.30;;;;;;;4.89;100.00;102039.81;5109413;28;20055;-80
2023/01/22 00:36:55;;;;;;;13.27;3.85;;;;;;;4.30;100.00;101980.56;5108546;28;20100;-80
2023/01/22 00:39:21;;;;;;;9.43;3.45;;;;;;;4.42;100.00;101972.03;5108871;28;20040;-81
2023/01/22 00:41:48;;;;;;;13.35;4.00;;;;;;;4.34;100.00;101972.81;5095961;28;20079;-80
2023/01/22 00:44:15;;;;;;;17.73;4.20;;;;;;;4.98;100.00;102058.91;5105079;28;20043;-81
2023/01/22 00:46:42;;;;;;;12.60;3.80;;;;;;;4.63;100.00;101956.59;5102078;28;20059;-80
2023/01/22 00:49:09;;;;;;;15.10;4.88;;;;;;;4.45;100.00;101979.84;5106338;28;20051;-80
2023/01/22 00:51:38;;;;;;;10.48;3.22;;;;;;;4.52;100.00;101982.47;5111946;28;20059;-80
2023/01/22 00:54:05;;;;;;;12.77;3.88;;;;;;;4.86;100.00;102031.16;5095783;28;20048;-80
2023/01/22 00:56:32;;;;;;;14.65;4.82;;;;;;;4.59;100.00;101980.81;5103191;28;20047;-80
2023/01/22 00:58:59;;;;;;;9.85;3.92;;;;;;;4.73;100.00;101999.91;5105473;28;20051;-80
2023/01/22 01:01:26;;;;;;;15.73;3.88;;;;;;;4.81;100.00;102005.16;5105349;28;20436;-80
2023/01/22 01:03:52;;;;;;;11.80;3.80;;;;;;;4.66;100.00;101986.91;5105761;28;20061;-80
2023/01/22 01:06:21;;;;;;;10.50;3.53;;;;;;;5.12;100.00;102054.69;5093829;28;20405;-80
2023/01/22 01:08:48;;;;;;;8.93;2.97;;;;;;;4.80;100.00;101997.34;5106993;28;20100;-80
2023/01/22 01:11:20;;;;;;;11.50;3.47;;;;;;;5.04;100.00;102027.78;5101480;28;20079;-80
2023/01/22 01:13:48;;;;;;;11.73;3.60;;;;;;;5.17;100.00;102047.78;5105548;28;20117;-80
2023/01/22 01:16:17;;;;;;;20.10;4.43;;;;;;;5.06;100.00;102063.28;5106969;28;20050;-80
2023/01/22 01:18:44;;;;;;;11.98;3.58;;;;;;;5.07;100.00;102062.44;5108387;28;20130;-80
2023/01/22 01:21:11;;;;;;;14.90;4.10;;;;;;;4.94;100.00;102063.22;5107765;28;20055;-81
2023/01/22 01:23:38;;;;;;;11.75;3.80;;;;;;;4.90;100.00;102053.66;5102811;28;20056;-80
2023/01/22 01:26:07;;;;;;;14.15;3.90;;;;;;;5.04;100.00;102084.91;5105833;28;20048;-80
2023/01/22 01:28:35;;;;;;;13.57;4.68;;;;;;;4.54;100.00;102013.63;5101126;28;20145;-80
2023/01/22 01:31:08;;;;;;;12.60;3.90;;;;;;;5.12;100.00;102065.06;5104806;28;20055;-80
2023/01/22 01:33:35;;;;;;;;;;;;;;;5.02;100.00;102063.25;5101277;28;20143;-81
2023/01/22 01:36:18;;;;;;;10.40;4.13;;;;;;;4.79;100.00;102012.06;5112236;28;19920;-80
2023/01/22 01:39:04;;;;;;;13.10;4.28;;;;;;;4.88;100.00;102048.44;5106571;28;20097;-81
2023/01/22 01:41:31;;;;;;;10.48;4.43;;;;;;;4.80;100.00;102024.19;5109069;28;20486;-80
2023/01/22 01:44:17;;;;;;;11.02;4.45;;;;;;;4.63;100.00;102016.28;5106993;28;20052;-80
2023/01/22 01:46:56;;;;;;;13.25;5.70;;;;;;;4.88;100.00;102065.75;5098559;28;20052;-82
2023/01/22 01:49:31;;;;;;;10.85;5.05;;;;;;;4.88;100.00;102040.66;5109987;28;20044;-80
2023/01/22 01:52:11;;;;;;;10.10;3.90;;;;;;;4.86;100.00;102031.16;5109536;28;20048;-81
2023/01/22 01:54:41;;;;;;;11.75;4.82;;;;;;;4.81;100.00;102059.66;5106575;28;20052;-80
2023/01/22 01:57:13;;;;;;;9.35;4.07;;;;;;;4.71;100.00;102025.00;5094169;28;20052;-80
2023/01/22 01:59:42;;;;;;;12.70;4.32;;;;;;;4.54;100.00;101988.53;5106466;28;20052;-80
2023/01/22 02:02:09;;;;;;;11.35;4.63;;;;;;;4.63;100.00;102010.22;5110659;28;20047;-81
2023/01/22 02:04:36;;;;;;;10.45;4.05;;;;;;;4.53;100.00;101986.81;5112654;28;20051;-81
2023/01/22 02:07:04;;;;;;;9.55;3.90;;;;;;;4.99;100.00;102058.03;5111784;28;20040;-81
2023/01/22 02:09:31;;;;;;;10.90;4.18;;;;;;;4.61;100.00;102004.16;5106400;28;20055;-80
2023/01/22 02:11:58;;;;;;;14.50;4.82;;;;;;;4.56;100.00;102009.31;5108794;28;20070;-81
2023/01/22 02:14:34;;;;;;;12.63;5.43;;;;;;;4.93;100.00;102056.28;5111878;28;20047;-80
2023/01/22 02:17:06;;;;;;;13.43;5.75;;;;;;;4.90;100.00;102049.31;5108006;28;20431;-80
2023/01/22 02:19:33;;;;;;;12.77;4.88;;;;;;;4.88;100.00;102042.41;5102217;28;20097;-80
2023/01/22 02:22:00;;;;;;;12.52;4.40;;;;;;;4.76;100.00;101991.28;5110453;28;20164;-80
2023/01/22 02:24:29;;;;;;;13.93;4.80;;;;;;;4.42;100.00;101965.09;5103358;28;20104;-81
2023/01/22 02:26:56;;;;;;;15.05;5.72;;;;;;;4.40;100.00;101968.56;5110286;28;20044;-81
2023/01/22 02:29:25;;;;;;;14.43;5.70;;;;;;;4.73;100.00;101980.91;5114309;28;20059;-81
2023/01/22 02:31:52;;;;;;;14.43;6.40;;;;;;;4.64;100.00;102019.72;5115083;28;20444;-81
2023/01/22 02:34:23;;;;;;;12.68;5.53;;;;;;;4.80;100.00;102029.38;5103461;28;20048;-81
2023/01/22 02:36:51;;;;;;;13.55;5.43;;;;;;;4.77;100.00;102021.56;5113171;28;20055;-81
2023/01/22 02:39:17;;;;;;;13.88;5.32;;;;;;;4.19;100.00;101968.38;5115009;28;20378;-80
2023/01/22 02:41:45;;;;;;;11.43;5.38;;;;;;;4.70;100.00;102015.47;5112764;28;20046;-81
2023/01/22 02:44:11;;;;;;;12.05;4.97;;;;;;;4.36;100.00;101952.09;5113904;28;20059;-81
2023/01/22 02:46:38;;;;;;;15.55;5.47;;;;;;;4.28;100.00;101956.34;5097130;28;20044;-81
2023/01/22 02:49:05;;;;;;;14.75;5.50;;;;;;;4.51;100.00;101952.19;5105365;28;20043;-81
2023/01/22 02:51:32;;;;;;;13.65;5.75;;;;;;;4.36;100.00;101936.53;5115328;28;20039;-81
2023/01/22 02:53:58;;;;;;;12.20;4.60;;;;;;;4.87;100.00;102004.31;5106765;28;20059;-81
2023/01/22 02:56:26;;;;;;;15.40;5.03;;;;;;;4.62;100.00;102005.88;5109064;28;20543;-80
2023/01/22 02:58:52;;;;;;;15.48;5.45;;;;;;;4.41;100.00;101954.72;5101348;28;20051;-81
2023/01/22 03:01:22;;;;;;;10.88;4.97;;;;;;;4.92;100.00;102016.50;5114316;28;20055;-81
2023/01/22 03:03:57;;;;;;;14.27;5.35;;;;;;;4.82;100.00;102022.47;5114935;28;20056;-80
2023/01/22 03:06:26;;;;;;;10.43;4.78;;;;;;;4.49;100.00;101968.63;5113030;28;20409;-81
2023/01/22 03:08:55;;;;;;;13.10;5.45;;;;;;;4.86;100.00;102024.22;5112362;28;20055;-81
2023/01/22 03:11:23;;;;;;;13.57;5.55;;;;;;;4.49;100.00;101971.22;5113678;28;20047;-81
2023/01/22 03:22:08;;;;;;;15.00;6.63;;;;;;;4.74;100.00;101969.66;5105858;28;20043;-81
2023/01/22 03:24:35;;;;;;;12.30;4.95;;;;;;;4.75;100.00;101969.66;5113755;28;20051;-81
2023/01/22 03:27:03;;;;;;;10.88;4.82;;;;;;;5.02;100.00;102007.00;5103360;28;20044;-81
2023/01/22 03:29:29;;;;;;;14.90;5.45;;;;;;;4.94;100.00;101998.34;5109903;28;20051;-81
2023/01/22 03:31:56;;;;;;;11.80;5.03;;;;;;;4.85;100.00;101980.09;5113042;28;20431;-81
2023/01/22 03:34:24;;;;;;;15.48;5.63;;;;;;;4.88;100.00;101991.34;5114405;28;20092;-82
2023/01/22 03:36:51;;;;;;;12.57;5.75;;;;;;;4.74;100.00;101980.03;5111100;28;20047;-81
2023/01/22 03:39:18;;;;;;;15.30;6.32;;;;;;;4.59;100.00;101954.00;5109882;28;20044;-81
2023/01/22 03:41:44;;;;;;;11.40;5.35;;;;;;;4.77;100.00;101979.19;5102180;28;20066;-81
2023/01/22 03:44:13;;;;;;;14.35;5.70;;;;;;;4.50;100.00;101936.66;5111855;28;20051;-81
2023/01/22 03:46:39;;;;;;;16.08;6.55;;;;;;;4.64;100.00;101942.78;5098165;28;20040;-81
2023/01/22 03:49:07;;;;;;;15.75;5.75;;;;;;;4.97;100.00;101985.34;5114130;28;20052;-81
2023/01/22 03:51:35;;;;;;;13.50;5.50;;;;;;;4.50;100.00;101914.16;5102753;28;20048;-81
2023/01/22 03:54:02;;;;;;;14.75;6.57;;;;;;;4.67;100.00;101950.56;5106046;28;20055;-81
2023/01/22 03:56:29;;;;;;;14.30;6.30;;;;;;;4.92;100.00;101974.06;5111850;28;20050;-81
2023/01/22 03:58:56;;;;;;;15.38;6.40;;;;;;;4.97;100.00;101981.91;5114222;28;20043;-81
2023/01/22 04:01:26;;;;;;;16.05;6.18;;;;;;;4.82;100.00;101946.34;5110239;28;20043;-81
2023/01/22 04:03:53;;;;;;;20.25;6.38;;;;;;;5.05;100.00;101973.28;5101525;28;20077;-81
2023/01/22 04:06:21;;;;;;;17.27;5.60;;;;;;;4.82;100.00;101943.75;5112934;28;20051;-81
2023/01/22 04:08:50;;;;;;;14.00;5.68;;;;;;;4.93;100.00;101939.47;5104070;28;20059;-81
2023/01/22 04:11:17;;;;;;;19.02;6.90;;;;;;;4.99;100.00;101941.22;5106514;28;20055;-80
2023/01/22 04:13:45;;;;;;;19.25;6.75;;;;;;;5.05;100.00;101959.44;5107593;28;20044;-81
2023/01/22 04:16:12;;;;;;;21.60;7.38;;;;;;;5.13;100.00;101968.13;5105170;28;20050;-81
2023/01/22 04:18:40;;;;;;;20.35;7.00;;;;;;;5.03;100.00;101937.78;5098529;28;20044;-81
2023/01/22 04:21:07;;;;;;;21.35;6.88;;;;;;;4.85;100.00;101923.00;5113474;27;20068;-81
2023/01/22 04:23:34;;;;;;;20.75;8.07;;;;;;;5.09;100.00;101976.78;5098170;28;20052;-80
2023/01/22 04:26:01;;;;;;;19.95;9.23;;;;;;;5.15;100.00;101992.34;5112639;28;20039;-81
2023/01/22 04:28:28;;;;;;;27.35;8.50;;;;;;;5.16;100.00;101981.13;5111523;28;20047;-81
2023/01/22 04:30:55;;;;;;;21.75;9.45;;;;;;;4.89;100.00;101967.16;5111522;28;20052;-81
2023/01/22 04:33:21;;;;;;;22.75;9.23;;;;;;;4.66;100.00;101917.72;5112768;28;20047;-81
2023/01/22 04:35:53;;;;;;;27.88;11.02;;;;;;;4.92;100.00;101937.72;5097636;28;20052;-81
2023/01/22 04:38:20;;;;;;;22.73;10.65;;;;;;;5.16;100.00;101977.69;5107759;28;20061;-81
2023/01/22 04:40:47;;;;;;;18.77;7.57;;;;;;;4.86;100.00;101919.56;5107886;28;20075;-83
2023/01/22 04:43:14;;;;;;;29.42;8.70;;;;;;;5.00;100.00;101948.19;5101406;28;20488;-81
2023/01/22 04:45:41;;;;;;;22.92;8.40;;;;;;;4.96;100.00;101947.28;5111729;28;20602;-80
2023/01/22 04:48:09;;;;;;;20.92;8.13;;;;;;;5.21;100.00;101974.22;5105793;28;20048;-80
2023/01/22 04:50:36;;;;;;;23.63;9.65;;;;;;;4.55;100.00;101903.78;5112134;28;20047;-80
2023/01/22 04:53:04;;;;;;;20.40;8.88;;;;;;;5.09;100.00;101980.22;5113174;28;20039;-81
2023/01/22 04:55:31;;;;;;;21.42;8.50;;;;;;;4.90;100.00;101929.94;5112943;28;20563;-82
2023/01/22 04:57:59;;;;;;;21.10;7.90;;;;;;;4.90;100.00;101937.72;5109977;28;20058;-80
2023/01/22 05:00:27;;;;;;;19.80;8.35;;;;;;;4.60;100.00;101891.72;5099752;28;20063;-81
2023/01/22 05:02:59;;;;;;;19.73;7.32;;;;;;;4.72;100.00;101876.22;5110800;28;20496;-81
2023/01/22 05:05:27;;;;;;;18.25;7.28;;;;;;;4.71;100.00;101903.03;5112024;28;20059;-81
2023/01/22 05:07:54;;;;;;;24.20;7.72;;;;;;;4.75;100.00;101911.72;5105184;28;20046;-80
2023/01/22 05:10:22;;;;;;;23.00;8.23;;;;;;;4.78;100.00;101903.06;5112133;28;20071;-81
2023/01/22 05:12:49;;;;;;;23.40;8.07;;;;;;;4.94;100.00;101931.72;5112019;28;20382;-81
2023/01/22 05:15:16;;;;;;;25.75;8.27;;;;;;;4.73;100.00;101929.00;5103486;28;20123;-80
2023/01/22 05:17:51;;;;;;;23.25;8.50;;;;;;;5.13;100.00;101971.59;5109578;28;20127;-80
2023/01/22 05:20:17;;;;;;;19.88;8.10;;;;;;;4.96;100.00;101955.09;5111582;28;20059;-81
2023/01/22 05:22:44;;;;;;;21.15;8.60;;;;;;;4.89;100.00;101932.56;5112442;28;20052;-80
2023/01/22 05:25:12;;;;;;;24.40;8.27;;;;;;;5.02;100.00;101978.47;5113111;28;20083;-80
2023/01/22 05:27:38;;;;;;;22.35;8.95;;;;;;;4.67;100.00;101915.97;5107106;28;20062;-81
2023/01/22 05:30:06;;;;;;;22.27;8.77;;;;;;;5.08;100.00;101964.63;5111782;28;20052;-81
2023/01/22 05:32:33;;;;;;;22.80;8.02;;;;;;;4.74;100.00;101931.59;5098961;28;20055;-81
2023/01/22 05:35:00;;;;;;;20.45;7.32;;;;;;;4.97;100.00;101945.56;5111307;28;20052;-80
2023/01/22 05:37:27;;;;;;;23.20;10.25;;;;;;;5.09;100.00;101980.22;5105552;28;20040;-82
2023/01/22 05:39:54;;;;;;;22.25;8.95;;;;;;;4.73;100.00;101903.91;5111607;28;20047;-81
2023/01/22 05:42:20;;;;;;;22.63;9.23;;;;;;;4.67;100.00;101915.97;5094665;28;20048;-81
2023/01/22 05:44:47;;;;;;;24.08;8.15;;;;;;;4.99;100.00;101946.44;5100855;28;20476;-81
2023/01/22 05:47:15;;;;;;;22.65;8.27;;;;;;;5.14;100.00;101942.16;5111381;28;20043;-81
2023/01/22 05:49:41;;;;;;;23.42;8.55;;;;;;;5.34;100.00;101975.16;5111587;28;20457;-81
2023/01/22 05:52:11;;;;;;;21.80;8.52;;;;;;;4.74;100.00;101910.81;5112834;28;20051;-81
2023/01/22 05:54:38;;;;;;;18.25;7.95;;;;;;;5.08;100.00;101934.38;5111957;28;20047;-81
2023/01/22 05:57:06;;;;;;;19.98;8.10;;;;;;;5.37;100.00;101979.50;5105871;28;20043;-81
2023/01/22 05:59:33;;;;;;;23.40;6.63;;;;;;;5.26;100.00;101951.75;5111710;28;20504;-81
2023/01/22 06:02:00;;;;;;;21.10;7.18;;;;;;;5.25;100.00;101955.19;5113146;28;20055;-80
2023/01/22 06:04:27;;;;;;;22.00;7.90;;;;;;;5.20;100.00;101941.31;5112057;28;20379;-81
2023/01/22 06:06:54;;;;;;;38.55;8.25;;;;;;;4.98;100.00;101908.38;5106705;28;20050;-80
2023/01/22 06:09:21;;;;;;;19.20;7.85;;;;;;;5.14;100.00;101970.72;5107386;28;20053;-81
2023/01/22 06:11:47;;;;;;;19.17;6.72;;;;;;;5.11;100.00;101943.88;5106799;28;20052;-81
2023/01/22 06:14:14;;;;;;;24.38;7.63;;;;;;;5.27;100.00;101983.78;5112108;28;20044;-81
2023/01/22 06:16:41;;;;;;;18.48;6.47;;;;;;;4.84;100.00;101905.72;5112845;28;20066;-81
2023/01/22 06:19:08;;;;;;;22.55;8.20;;;;;;;4.97;100.00;101924.78;5110804;28;20047;-81
2023/01/22 06:21:35;;;;;;;15.60;6.53;;;;;;;5.09;100.00;101912.72;5116028;28;20051;-80
2023/01/22 06:24:02;;;;;;;24.63;7.60;;;;;;;4.98;100.00;101922.22;5108968;28;20131;-82
2023/01/22 06:26:28;;;;;;;25.73;9.95;;;;;;;5.31;100.00;101964.72;5095740;28;20052;-81
2023/01/22 06:28:55;;;;;;;15.95;6.93;;;;;;;5.16;100.00;101911.03;5112993;28;20036;-82
2023/01/22 06:31:22;;;;;;;21.35;7.10;;;;;;;5.25;100.00;101936.16;5104778;28;20048;-81
2023/01/22 06:33:49;;;;;;;22.63;8.38;;;;;;;5.06;100.00;101902.31;5112604;28;20058;-81
2023/01/22 06:36:15;;;;;;;26.10;8.93;;;;;;;5.00;100.00;101914.44;5115024;28;20721;-80
2023/01/22 06:38:42;;;;;;;21.33;8.80;;;;;;;5.00;100.00;101896.25;5111024;28;20066;-82
2023/01/22 06:41:09;;;;;;;22.75;9.13;;;;;;;4.88;100.00;101890.13;5115667;28;20044;-80
2023/01/22 06:43:38;;;;;;;17.25;7.35;;;;;;;4.89;100.00;101885.84;5115398;28;20051;-81
2023/01/22 06:46:05;;;;;;;22.10;9.13;;;;;;;5.06;100.00;101917.91;5114705;28;20055;-80
2023/01/22 06:48:32;;;;;;;24.45;7.88;;;;;;;5.13;100.00;101898.03;5096461;28;20060;-81
2023/01/22 06:50:59;;;;;;;24.38;8.52;;;;;;;5.11;100.00;101898.00;5112243;28;20047;-81
2023/01/22 06:53:26;;;;;;;19.73;8.90;;;;;;;5.25;100.00;101911.06;5115500;28;20079;-82
2023/01/22 06:55:53;;;;;;;29.23;9.27;;;;;;;5.18;100.00;101898.91;5114976;28;20048;-82
2023/01/22 06:58:21;;;;;;;24.02;9.40;;;;;;;5.35;100.00;101932.75;5110280;28;20046;-83
2023/01/22 07:00:47;;;;;;;26.52;9.05;;;;;;;4.94;100.00;101871.16;5105058;28;20052;-82
2023/01/22 07:03:14;;;;;;;27.25;10.05;;;;;;;5.30;100.00;101918.88;5111785;28;20052;-83
2023/01/22 07:05:41;;;;;;;24.52;9.30;;;;;;;5.04;100.00;101856.47;5105031;28;20044;-81
2023/01/22 07:08:13;;;;;;;25.42;9.75;;;;;;;5.18;100.00;101895.47;5101588;28;20044;-80
2023/01/22 07:10:40;;;;;;;26.10;8.23;;;;;;;5.08;100.00;101861.69;5105956;28;20044;-81
2023/01/22 07:13:09;;;;;;;27.77;7.93;;;;;;;5.58;100.00;101942.31;5103183;28;20048;-80
2023/01/22 07:15:35;;;;;;;28.48;10.38;;;;;;;5.24;100.00;101911.03;5111790;28;20052;-81
2023/01/22 07:18:02;;;;;;;25.60;8.50;;;;;;;5.59;100.00;101949.25;5103990;28;20044;-80
2023/01/22 07:20:29;;;;;;;28.65;11.98;;;;;;;5.17;100.00;101907.59;5106588;28;20051;-81
2023/01/22 07:22:58;;;;;;;18.58;8.48;;;;;;;5.40;100.00;101905.06;5109196;28;20056;-82
2023/01/22 07:25:26;;;;;;;25.80;10.68;;;;;;;4.99;100.00;101874.59;5099368;28;20643;-81
2023/01/22 07:28:04;;;;;;;19.02;8.95;;;;;;;5.04;100.00;101890.22;5104895;28;20117;-81
2023/01/22 07:30:31;;;;;;;23.48;9.52;;;;;;;5.38;100.00;101937.91;5112886;28;20497;-81
2023/01/22 07:33:00;;;;;;;28.52;8.98;;;;;;;5.69;100.00;101977.00;5101097;28;20062;-81
2023/01/22 07:35:27;;;;;;;26.08;9.85;;;;;;;5.46;100.00;101953.56;5106156;28;20124;-81
2023/01/22 07:37:57;;;;;;;20.58;7.72;;;;;;;5.70;100.00;101961.41;5113480;28;20047;-81
2023/01/22 07:40:24;;;;;;;21.95;9.13;;;;;;;5.11;100.00;101879.84;5096453;28;20097;-81
2023/01/22 07:42:52;;;;;;;26.75;8.60;;;;;;;5.34;100.00;101931.00;5109094;28;20044;-80
2023/01/22 07:45:19;;;;;;;25.70;8.35;;;;;;;5.20;100.00;101909.31;5093668;28;20048;-80
2023/01/22 07:47:57;;;;;;;23.45;9.77;;;;;;;5.44;100.00;101963.94;5110861;28;20408;-80
2023/01/22 07:50:27;;;;;;;22.75;9.60;;;;;;;5.22;100.00;101917.97;5113513;28;20108;-81
2023/01/22 07:52:55;;;;;;;22.17;8.63;;;;;;;5.51;100.00;101993.41;5112429;28;20058;-81
2023/01/22 07:55:22;;;;;;;22.77;8.30;;;;;;;5.58;100.00;101981.28;5114834;28;20047;-82
2023/01/22 07:58:03;;;;;;;20.17;8.25;;;;;;;5.65;100.00;101994.31;5111227;28;20519;-81
2023/01/22 08:00:32;;;;;;;28.65;8.80;;;;;;;5.35;100.00;101947.44;5114515;28;20070;-82
2023/01/22 08:02:59;;;;;;;21.08;8.15;;;;;;;5.30;100.00;101913.69;5114115;28;20134;-82
2023/01/22 08:05:26;;;;;;;25.92;9.65;;;;;;;5.65;100.00;101990.84;5112758;28;20075;-81
2023/01/22 08:07:53;;;;;;;24.27;9.77;;;;;;;5.19;100.00;101938.72;5109310;28;20047;-82
2023/01/22 08:10:20;;;;;;;26.35;8.60;;;;;;;5.20;100.00;101922.28;5115067;28;20051;-83
2023/01/22 08:12:46;;;;;;;19.90;9.40;;;;;;;5.60;100.00;101962.25;5111735;28;20162;-81
2023/01/22 08:15:14;;;;;;;27.15;10.07;;;;;;;5.27;100.00;101898.94;5113998;28;20617;-81
2023/01/22 08:17:41;;;;;;;25.45;10.20;;;;;;;5.23;100.00;101912.78;5106189;28;20066;-82
2023/01/22 08:20:09;;;;;;;25.65;10.43;;;;;;;5.51;100.00;101929.31;5112377;28;20056;-81
2023/01/22 08:22:36;;;;;;;28.63;10.00;;;;;;;5.31;100.00;101889.41;5113221;28;20055;-82
2023/01/22 08:25:03;;;;;;;23.10;10.75;;;;;;;5.24;100.00;101888.56;5113966;28;20048;-82
2023/01/22 08:27:31;;;;;;;26.60;9.95;;;;;;;5.45;100.00;101928.41;5111451;28;20043;-82
2023/01/22 08:29:57;;;;;;;26.65;10.57;;;;;;;5.58;100.00;101991.66;5112592;28;20047;-82
2023/01/22 08:32:24;;;;;;;26.23;11.00;;;;;;;5.40;100.00;101938.81;5113642;28;20055;-82
2023/01/22 08:34:53;;;;;;;23.05;10.38;;;;;;;5.34;100.00;101931.00;5112123;28;20048;-84
2023/01/22 08:37:21;;;;;;;25.33;9.88;;;;;;;5.40;100.00;101935.34;5108445;28;20048;-83
2023/01/22 08:39:48;;;;;;;29.13;10.00;;;;;;;5.67;100.00;101968.34;5102249;28;20051;-83
2023/01/22 08:42:15;;;;;;;31.30;9.90;;;;;;;5.44;100.00;101958.72;5112869;28;20052;-84
2023/01/22 08:44:42;;;;;;;30.02;9.90;;;;;;;5.59;100.00;101970.88;5109709;28;20051;-83
2023/01/22 08:47:10;;;;;;;22.77;9.45;;;;;;;5.47;100.00;101930.19;5107009;28;20440;-84
2023/01/22 08:49:37;;;;;;;23.00;8.80;;;;;;;5.58;100.00;101945.78;5113969;28;20127;-83
2023/01/22 08:52:04;;;;;;;26.52;8.45;;;;;;;5.62;100.00;101949.25;5112801;28;20059;-83
2023/01/22 08:54:31;;;;;;;19.13;8.68;;;;;;;5.50;100.00;101957.88;5113259;28;20052;-84
2023/01/22 08:56:58;;;;;;;22.65;7.32;;;;;;;5.63;100.00;101951.88;5111462;28;20051;-83
2023/01/22 08:59:25;;;;;;;26.75;8.93;;;;;;;5.79;100.00;101968.38;5107645;28;20048;-83
2023/01/22 09:01:51;;;;;;;24.88;9.45;;;;;;;5.57;100.00;101945.78;5106342;28;20050;-83
2023/01/22 09:04:18;;;;;;;23.75;8.55;;;;;;;5.72;100.00;101966.63;5111996;28;20048;-83
2023/01/22 09:06:45;;;;;;;19.92;6.80;;;;;;;5.94;100.00;101988.31;5100020;28;20086;-82
2023/01/22 09:09:13;;;;;;;16.90;7.80;;;;;;;5.63;100.00;101951.88;5111643;28;20084;-83
2023/01/22 09:11:40;;;;;;;22.05;9.35;;;;;;;5.43;100.00;101920.63;5100889;28;20104;-82
2023/01/22 09:14:08;;;;;;;22.67;9.60;;;;;;;5.51;100.00;101959.63;5112320;28;20408;-82
2023/01/22 09:16:35;;;;;;;26.10;8.95;;;;;;;5.80;100.00;101977.00;5109613;28;20413;-83
2023/01/22 09:19:03;;;;;;;25.20;9.55;;;;;;;5.91;100.00;102003.88;5109143;28;20047;-82
2023/01/22 09:21:32;;;;;;;18.95;8.02;;;;;;;5.57;100.00;101941.44;5110026;28;20062;-81
2023/01/22 09:23:59;;;;;;;21.90;8.63;;;;;;;5.84;100.00;101977.03;5097190;28;20047;-82
2023/01/22 09:26:26;;;;;;;18.70;7.65;;;;;;;5.89;100.00;101958.84;5101062;28;20051;-81
2023/01/22 09:28:53;;;;;;;19.02;7.18;;;;;;;5.85;100.00;101957.97;5109323;28;20381;-83
2023/01/22 09:31:20;;;;;;;17.33;8.00;;;;;;;5.74;100.00;101951.88;5113857;28;20043;-82
2023/01/22 09:33:46;;;;;;;23.77;8.60;;;;;;;5.85;100.00;101977.91;5098865;28;20047;-81
2023/01/22 09:36:15;;;;;;;20.92;7.78;;;;;;;6.16;100.00;102036.06;5112413;28;20473;-82
2023/01/22 09:38:43;;;;;;;17.67;7.25;;;;;;;6.07;100.00;102003.09;5107873;28;20048;-82
2023/01/22 09:41:27;;;;;;;21.00;8.35;;;;;;;5.70;100.00;101979.59;5098666;28;20051;-82
2023/01/22 09:43:59;;;;;;;23.90;8.77;;;;;;;5.83;100.00;102024.69;5107700;28;20496;-83
2023/01/22 09:46:29;;;;;;;23.42;8.07;;;;;;;6.10;100.00;102061.19;5107243;28;20053;-81
2023/01/22 09:49:02;;;;;;;20.33;8.20;;;;;;;5.89;100.00;102016.03;5105054;28;20047;-82
2023/01/22 09:51:28;;;;;;;27.38;8.55;;;;;;;5.78;100.00;102013.41;5115401;28;20043;-83
2023/01/22 09:53:58;;;;;;;19.25;8.00;;;;;;;6.02;100.00;102015.22;5115659;28;20044;-82
2023/01/22 09:56:49;;;;;;;19.50;7.40;;;;;;;5.99;100.00;102027.34;5108458;28;20043;-82
2023/01/22 09:59:22;;;;;;;24.25;8.98;;;;;;;6.20;100.00;102060.34;5103838;28;20040;-82
2023/01/22 10:01:56;;;;;;;24.15;7.85;;;;;;;5.99;100.00;102011.75;5115838;28;20458;-82
2023/01/22 10:04:33;;;;;;;18.73;7.72;;;;;;;6.17;100.00;102057.72;5111804;28;20039;-82
2023/01/22 10:07:03;;;;;;;17.45;8.43;;;;;;;5.90;100.00;101992.63;5112906;28;20055;-82
2023/01/22 10:09:31;;;;;;;16.63;6.93;;;;;;;6.31;100.00;102076.81;5115507;28;20056;-83
2023/01/22 10:12:08;;;;;;;25.23;8.52;;;;;;;6.31;100.00;102062.94;5115041;28;20171;-82
2023/01/22 10:14:35;;;;;;;19.75;7.93;;;;;;;5.95;100.00;102016.06;5107943;28;20051;-82
2023/01/22 10:17:02;;;;;;;14.10;5.95;;;;;;;6.39;100.00;102072.50;5108778;28;20044;-83
2023/01/22 10:19:45;;;;;;;19.58;8.20;;;;;;;6.25;100.00;102079.41;5109841;28;20396;-82
2023/01/22 10:22:24;;;;;;;21.35;8.20;;;;;;;6.07;100.00;102047.31;5115316;28;20051;-82
2023/01/22 10:24:52;;;;;;;21.45;10.25;;;;;;;6.25;100.00;102075.06;5116185;28;20051;-82
2023/01/22 10:27:24;;;;;;;14.57;6.78;;;;;;;6.40;100.00;102076.81;5112584;28;20051;-82
2023/01/22 10:30:03;;;;;;;16.13;8.15;;;;;;;6.06;100.00;102036.91;5115318;28;20047;-83
2023/01/22 10:32:31;;;;;;;17.63;7.63;;;;;;;5.98;100.00;102018.66;5111766;28;20421;-82
2023/01/22 10:35:15;;;;;;;16.63;6.80;;;;;;;6.48;100.00;102084.66;5103874;28;20497;-83
2023/01/22 10:37:44;;;;;;;26.00;9.00;;;;;;;5.82;100.00;102015.13;5102397;28;20063;-82
2023/01/22 10:40:25;;;;;;;17.83;7.90;;;;;;;6.51;100.00;102096.78;5113156;28;20051;-82
2023/01/22 10:43:00;;;;;;;17.00;7.82;;;;;;;5.83;100.00;102023.81;5109066;28;20120;-83
2023/01/22 10:45:27;;;;;;;18.75;7.65;;;;;;;5.99;100.00;102035.16;5115028;28;20048;-83
2023/01/22 10:48:09;;;;;;;14.18;6.57;;;;;;;6.21;100.00;102047.31;5105005;28;20047;-82
2023/01/22 10:50:36;;;;;;;19.25;7.47;;;;;;;6.17;100.00;102058.59;5110755;28;20052;-82
2023/01/22 10:53:06;;;;;;;22.85;8.10;;;;;;;6.40;100.00;102095.03;5114211;28;20055;-82
2023/01/22 10:55:39;;;;;;;20.45;8.20;;;;;;;5.99;100.00;102025.63;5114037;28;20070;-83
2023/01/22 10:58:13;;;;;;;;;;;;;;;6.30;100.00;102097.63;5110857;28;20495;-82
2023/01/22 11:00:39;;;;;;;;;;;;;;;6.38;100.00;102086.38;5110824;28;19973;-83
2023/01/22 11:03:27;;;;;;;22.70;6.88;;;;;;;6.19;100.00;102048.19;5112814;28;20011;-83
2023/01/22 11:06:00;;;;;;;17.95;7.20;;;;;;;6.12;100.00;102012.63;5114163;28;20058;-83
2023/01/22 11:08:41;;;;;;;18.98;8.68;;;;;;;6.23;100.00;102030.00;5109024;28;20047;-83
2023/01/22 11:11:12;;;;;;;19.65;8.52;;;;;;;6.40;100.00;102035.19;5113385;28;20052;-83
2023/01/22 11:13:52;;;;;;;23.23;9.57;;;;;;;6.27;100.00;102021.31;5104542;28;20044;-83
2023/01/22 11:16:23;;;;;;;25.58;9.75;;;;;;;6.32;100.00;102030.84;5109899;28;20047;-82
2023/01/22 11:18:58;;;;;;;19.58;9.20;;;;;;;6.04;100.00;101981.44;5094584;28;20048;-83
2023/01/22 11:21:31;;;;;;;22.67;8.40;;;;;;;6.44;100.00;102030.88;5094909;28;20044;-83
2023/01/22 11:23:57;;;;;;;22.98;9.70;;;;;;;6.50;100.00;102053.41;5113406;28;20526;-82
2023/01/22 11:26:58;;;;;;;24.17;9.45;;;;;;;6.68;100.00;102060.38;5113293;28;20048;-82
2023/01/22 11:29:39;;;;;;;22.42;9.05;;;;;;;6.62;100.00;102066.41;5102954;28;20047;-82
2023/01/22 11:32:31;;;;;;;25.60;9.93;;;;;;;6.53;100.00;102076.84;5104967;28;20048;-83